This is the latest recevied weather packets stored in our database for station/object KT2UU-13. If no packets are shown the sender has not sent any weather packets the latest 10 day(s).
| Time | Temp. | Humidity | Pressure | Rain* | Wind** | Luminosity | Snow |
|---|---|---|---|---|---|---|---|
| 1777920469 | 24.44° C | 48% | 1016.4 hPa | 0 mm | - | - | - |
| 1777920164 | 23.33° C | 46% | 1016.6 hPa | 0 mm | - | - | - |
| 1777919860 | 23.89° C | 49% | 1016.6 hPa | 0 mm | - | - | - |
| 1777919557 | 23.89° C | 47% | 1016.4 hPa | 0 mm | - | - | - |
| 1777919256 | 23.33° C | 45% | 1016.8 hPa | 0 mm | - | - | - |
| 1777918953 | 23.89° C | 51% | 1016.6 hPa | 0 mm | - | - | - |
| 1777918650 | 23.33° C | 48% | 1016.8 hPa | 0 mm | - | - | - |
| 1777918347 | 23.33° C | 49% | 1016.9 hPa | 0 mm | - | - | - |
| 1777918046 | 23.33° C | 50% | 1016.8 hPa | 0 mm | - | - | - |
| 1777917745 | 22.78° C | 47% | 1017 hPa | 0 mm | - | - | - |
| 1777917442 | 22.78° C | 48% | 1017 hPa | 0 mm | - | - | - |
| 1777917138 | 22.22° C | 49% | 1017.1 hPa | 0 mm | - | - | - |
| 1777916837 | 22.22° C | 51% | 1017.2 hPa | 0 mm | - | - | - |
| 1777916534 | 22.78° C | 48% | 1017.3 hPa | 0 mm | - | - | - |
| 1777916230 | 22.78° C | 51% | 1017.2 hPa | 0 mm | - | - | - |
| 1777915928 | 22.22° C | 50% | 1017.4 hPa | 0 mm | - | - | - |
| 1777915624 | 22.78° C | 50% | 1017.6 hPa | 0 mm | - | - | - |
| 1777915320 | 22.22° C | 50% | 1017.4 hPa | 0 mm | - | - | - |
| 1777915017 | 21.67° C | 50% | 1017.5 hPa | 0 mm | - | - | - |
| 1777914714 | 21.67° C | 49% | 1017.8 hPa | 0 mm | - | - | - |
| 1777914410 | 22.22° C | 49% | 1017.7 hPa | 0 mm | - | - | - |
| 1777914108 | 21.67° C | 52% | 1017.7 hPa | 0 mm | - | - | - |
| 1777913804 | 21.67° C | 53% | 1017.7 hPa | 0 mm | - | - | - |
| 1777913501 | 21.11° C | 51% | 1017.9 hPa | 0 mm | - | - | - |
| 1777913197 | 21.11° C | 52% | 1018.2 hPa | 0 mm | - | - | - |
* Rain latest hour (hover to see other rain measurements)
** Current wind speed in m/s (hover to see current wind gust speed)